Time;durP1;ratioP1;P1;durP2;ratioP2;P2;SDS_P1;SDS_P2;PMS_P1;PMS_P2;Temp;Humidity;BMP_temperature;BMP_pressure;BME280_temperature;BME280_humidity;BME280_pressure;Samples;Min_cycle;Max_cycle;Signal;HPM_P1;HPM_P2
2021/07/26 00:01:21;;;;;;;0.40;0.30;;;17.30;99.90;;;;;;5091763;28;20449;-74
2021/07/26 00:03:47;;;;;;;0.40;0.20;;;17.40;99.90;;;;;;5090947;28;20469;-75
2021/07/26 00:06:13;;;;;;;0.40;0.20;;;17.50;99.90;;;;;;5091599;28;20419;-73
2021/07/26 00:08:38;;;;;;;0.40;0.20;;;17.40;99.90;;;;;;5090509;28;20789;-74
2021/07/26 00:11:08;;;;;;;0.40;0.20;;;17.40;99.90;;;;;;5091428;28;20374;-73
2021/07/26 00:13:35;;;;;;;0.40;0.20;;;17.40;99.90;;;;;;5090469;28;20742;-74
2021/07/26 00:16:01;;;;;;;0.40;0.30;;;17.40;99.90;;;;;;5091240;28;20406;-74
2021/07/26 00:18:27;;;;;;;0.40;0.20;;;17.30;99.90;;;;;;5090981;28;20726;-74
2021/07/26 00:20:54;;;;;;;0.40;0.20;;;17.20;99.90;;;;;;5090935;28;20381;-74
2021/07/26 00:23:20;;;;;;;0.40;0.20;;;17.30;99.90;;;;;;5073130;28;20469;-74
2021/07/26 00:25:46;;;;;;;0.40;0.20;;;17.40;99.90;;;;;;5090577;28;20378;-73
2021/07/26 00:28:12;;;;;;;0.40;0.20;;;17.30;99.90;;;;;;5090598;28;20759;-73
2021/07/26 00:30:38;;;;;;;0.40;0.30;;;17.30;99.90;;;;;;5090575;28;20366;-74
2021/07/26 00:33:56;;;;;;;0.40;0.20;;;17.30;99.90;;;;;;5090837;28;20443;-73
2021/07/26 00:36:22;;;;;;;0.40;0.23;;;17.50;99.90;;;;;;5083103;28;20473;-73
2021/07/26 00:38:48;;;;;;;0.40;0.20;;;17.60;99.90;;;;;;5090127;28;20378;-73
2021/07/26 00:41:16;;;;;;;0.40;0.20;;;17.40;99.90;;;;;;5090979;28;20377;-72
2021/07/26 00:43:41;;;;;;;0.40;0.30;;;17.50;99.90;;;;;;5090075;28;20886;-73
2021/07/26 00:46:07;;;;;;;0.40;0.20;;;17.50;99.90;;;;;;5090969;28;20378;-73
2021/07/26 00:48:32;;;;;;;0.40;0.20;;;17.60;99.90;;;;;;5089925;28;20409;-73
2021/07/26 00:50:58;;;;;;;0.40;0.20;;;17.60;99.90;;;;;;5090979;28;20862;-73
2021/07/26 00:53:24;;;;;;;0.40;0.20;;;17.60;99.90;;;;;;5090882;28;20398;-73
2021/07/26 00:55:50;;;;;;;0.40;0.20;;;17.60;99.90;;;;;;5090277;28;20386;-73
2021/07/26 00:58:16;;;;;;;0.40;0.30;;;17.60;99.90;;;;;;5090467;28;20385;-73
2021/07/26 01:00:41;;;;;;;0.40;0.20;;;17.50;99.90;;;;;;5090335;28;20738;-74
2021/07/26 01:03:08;;;;;;;0.40;0.20;;;17.50;99.90;;;;;;5090573;28;20396;-73
2021/07/26 01:05:34;;;;;;;0.40;0.20;;;17.50;99.90;;;;;;5090234;28;20427;-73
2021/07/26 01:08:00;;;;;;;0.40;0.20;;;17.50;99.90;;;;;;5090806;28;20911;-72
2021/07/26 01:10:26;;;;;;;0.40;0.20;;;17.50;99.90;;;;;;5090843;28;20370;-74
2021/07/26 01:12:52;;;;;;;0.40;0.20;;;17.30;99.90;;;;;;5089881;28;20862;-74
2021/07/26 01:15:18;;;;;;;0.40;0.20;;;17.50;99.90;;;;;;5090976;28;20496;-74
2021/07/26 01:18:23;;;;;;;0.40;0.20;;;17.40;99.90;;;;;;5072033;28;20470;-74
2021/07/26 01:21:05;;;;;;;0.40;0.20;;;17.40;99.90;;;;;;5086636;28;20379;-74
2021/07/26 01:23:39;;;;;;;0.40;0.20;;;17.40;99.90;;;;;;5090044;28;20389;-74
2021/07/26 01:26:07;;;;;;;0.40;0.20;;;17.30;99.90;;;;;;5090712;28;20382;-74
2021/07/26 01:28:41;;;;;;;0.40;0.20;;;17.40;99.90;;;;;;5089533;28;20906;-75
2021/07/26 01:31:07;;;;;;;0.40;0.20;;;17.30;99.90;;;;;;5090751;28;20471;-74
2021/07/26 01:33:33;;;;;;;0.40;0.20;;;17.40;99.90;;;;;;5089778;28;20793;-74
2021/07/26 01:36:00;;;;;;;0.40;0.22;;;17.40;99.90;;;;;;5090299;28;20903;-74
2021/07/26 01:38:25;;;;;;;0.40;0.20;;;17.30;99.90;;;;;;5090677;28;20449;-74
2021/07/26 01:40:55;;;;;;;0.40;0.20;;;17.30;99.90;;;;;;5089896;28;20800;-74
2021/07/26 01:43:24;;;;;;;0.40;0.20;;;17.30;99.90;;;;;;5090611;28;20434;-74
2021/07/26 01:45:58;;;;;;;0.40;0.20;;;17.20;99.90;;;;;;5089787;28;20379;-74
2021/07/26 01:48:29;;;;;;;0.40;0.27;;;17.30;99.90;;;;;;5090438;28;20408;-74
2021/07/26 01:51:02;;;;;;;0.40;0.20;;;17.20;99.90;;;;;;5090008;28;20430;-74
2021/07/26 01:53:29;;;;;;;0.40;0.28;;;17.20;99.90;;;;;;5094043;28;20472;-74
2021/07/26 01:55:55;;;;;;;0.40;0.30;;;17.20;99.90;;;;;;5093167;28;20378;-74
2021/07/26 01:58:21;;;;;;;0.40;0.20;;;17.30;99.90;;;;;;5093857;28;20485;-73
2021/07/26 02:00:47;;;;;;;0.40;0.30;;;17.30;99.90;;;;;;5092810;28;20515;-73
2021/07/26 02:03:15;;;;;;;0.40;0.20;;;17.20;99.90;;;;;;5093773;28;20772;-74
2021/07/26 02:05:41;;;;;;;0.40;0.25;;;17.20;99.90;;;;;;5093072;28;20711;-74
2021/07/26 02:08:06;;;;;;;0.40;0.20;;;17.20;99.90;;;;;;5093795;28;20418;-74
2021/07/26 02:10:32;;;;;;;0.40;0.20;;;17.20;99.90;;;;;;5093622;28;20385;-74
2021/07/26 02:12:58;;;;;;;0.40;0.20;;;17.20;99.90;;;;;;5108773;28;20460;-74
2021/07/26 02:15:24;;;;;;;0.40;0.20;;;17.20;99.90;;;;;;5093675;28;20377;-74
2021/07/26 02:17:50;;;;;;;0.40;0.30;;;17.10;99.90;;;;;;5092765;28;20917;-74
2021/07/26 02:20:16;;;;;;;0.40;0.20;;;17.10;99.90;;;;;;5093373;28;20454;-74
2021/07/26 02:22:43;;;;;;;0.40;0.20;;;17.10;99.90;;;;;;5092781;28;20382;-75
2021/07/26 02:25:09;;;;;;;0.40;0.30;;;17.00;99.90;;;;;;5093543;28;20390;-74
2021/07/26 02:27:35;;;;;;;0.40;0.20;;;17.00;99.90;;;;;;5092729;28;20463;-74
2021/07/26 02:30:00;;;;;;;0.40;0.20;;;16.90;99.90;;;;;;5093715;28;20390;-74
2021/07/26 02:32:26;;;;;;;0.40;0.20;;;16.90;99.90;;;;;;5093088;28;20383;-74
2021/07/26 02:34:52;;;;;;;0.40;0.20;;;16.90;99.90;;;;;;5074567;28;20417;-74
2021/07/26 02:37:17;;;;;;;0.40;0.30;;;16.80;99.90;;;;;;5075388;28;20394;-74
2021/07/26 02:39:43;;;;;;;0.40;0.30;;;17.00;99.90;;;;;;5092440;28;20370;-74
2021/07/26 02:42:09;;;;;;;0.40;0.30;;;17.10;99.90;;;;;;5093157;28;20390;-74
2021/07/26 02:44:35;;;;;;;0.40;0.30;;;16.90;99.90;;;;;;5093246;28;20873;-74
2021/07/26 02:47:01;;;;;;;0.40;0.30;;;16.90;99.90;;;;;;5092918;28;20378;-74
2021/07/26 02:49:27;;;;;;;0.40;0.20;;;16.80;99.90;;;;;;5092856;28;20406;-74
2021/07/26 02:51:52;;;;;;;0.40;0.20;;;16.80;99.90;;;;;;5092089;28;20443;-74
2021/07/26 02:54:18;;;;;;;0.40;0.20;;;16.90;99.90;;;;;;5092993;28;20381;-74
2021/07/26 02:56:44;;;;;;;0.40;0.20;;;16.80;99.90;;;;;;5092031;28;20394;-74
2021/07/26 02:59:09;;;;;;;0.40;0.20;;;16.90;99.90;;;;;;5092688;28;20430;-74
2021/07/26 03:01:37;;;;;;;0.40;0.20;;;16.80;99.90;;;;;;5092453;28;20370;-74
2021/07/26 03:04:03;;;;;;;0.40;0.20;;;16.80;99.90;;;;;;5092536;28;20378;-74
2021/07/26 03:06:29;;;;;;;0.40;0.20;;;16.70;99.90;;;;;;5074466;28;20898;-74
2021/07/26 03:08:54;;;;;;;0.40;0.20;;;16.80;99.90;;;;;;5091936;28;20406;-74
2021/07/26 03:11:20;;;;;;;0.40;0.30;;;16.70;99.90;;;;;;5092416;28;20385;-74
2021/07/26 03:13:45;;;;;;;0.40;0.20;;;16.70;99.90;;;;;;5091871;28;20727;-74
2021/07/26 03:16:13;;;;;;;0.40;0.20;;;16.70;99.90;;;;;;5092293;28;20417;-74
2021/07/26 03:18:39;;;;;;;0.40;0.20;;;16.70;99.90;;;;;;5107564;28;20397;-74
2021/07/26 03:21:06;;;;;;;0.40;0.20;;;16.60;99.90;;;;;;5092365;28;20755;-74
2021/07/26 03:23:32;;;;;;;0.40;0.30;;;16.50;99.90;;;;;;5092274;28;20378;-74
2021/07/26 03:25:58;;;;;;;0.40;0.20;;;16.50;99.90;;;;;;5091390;28;20734;-74
2021/07/26 03:28:24;;;;;;;0.40;0.30;;;16.50;99.90;;;;;;5091640;28;20829;-74
2021/07/26 03:30:50;;;;;;;0.40;0.20;;;16.50;99.90;;;;;;5091527;28;20389;-75
2021/07/26 03:33:15;;;;;;;0.40;0.20;;;16.50;99.90;;;;;;5092223;28;20454;-74
2021/07/26 03:35:41;;;;;;;0.40;0.20;;;16.50;99.90;;;;;;5091564;28;20435;-74
2021/07/26 03:38:07;;;;;;;0.40;0.20;;;16.40;99.90;;;;;;5092294;28;20866;-74
2021/07/26 03:40:34;;;;;;;0.40;0.20;;;16.50;99.90;;;;;;5092039;28;20846;-74
2021/07/26 03:43:01;;;;;;;0.40;0.20;;;16.60;99.90;;;;;;5091242;28;20370;-74
2021/07/26 03:45:28;;;;;;;0.40;0.30;;;16.70;99.90;;;;;;5092102;28;20382;-73
2021/07/26 03:47:56;;;;;;;0.40;0.20;;;16.60;99.90;;;;;;5091254;28;20438;-74
2021/07/26 03:50:22;;;;;;;0.40;0.30;;;16.60;99.90;;;;;;5091737;28;20461;-74
2021/07/26 03:52:55;;;;;;;0.40;0.20;;;16.50;99.90;;;;;;5090933;28;20450;-74
2021/07/26 03:55:22;;;;;;;0.40;0.20;;;16.40;99.90;;;;;;5091758;28;20452;-74
2021/07/26 03:57:49;;;;;;;0.40;0.30;;;16.50;99.90;;;;;;5091385;28;20418;-74
2021/07/26 04:00:17;;;;;;;0.40;0.20;;;16.40;99.90;;;;;;5091671;28;20382;-74
2021/07/26 04:02:46;;;;;;;0.40;0.20;;;16.40;99.90;;;;;;5091334;28;20382;-75
2021/07/26 04:05:21;;;;;;;0.40;0.20;;;16.40;99.90;;;;;;5092058;28;20374;-74
2021/07/26 04:07:49;;;;;;;0.40;0.20;;;16.30;99.90;;;;;;5091272;28;20406;-75
2021/07/26 04:10:15;;;;;;;0.40;0.20;;;16.40;99.90;;;;;;5091400;28;20439;-75
2021/07/26 04:12:45;;;;;;;0.40;0.20;;;16.40;99.90;;;;;;5091682;28;20470;-75
2021/07/26 04:15:11;;;;;;;0.40;0.22;;;16.40;99.90;;;;;;5091512;28;20381;-75
2021/07/26 04:17:37;;;;;;;0.40;0.20;;;16.20;99.90;;;;;;5091631;28;20387;-75
2021/07/26 04:20:05;;;;;;;0.40;0.20;;;16.10;99.90;;;;;;5091153;28;20382;-75
2021/07/26 04:22:30;;;;;;;0.40;0.30;;;16.30;99.90;;;;;;5091565;28;20382;-75
2021/07/26 04:24:56;;;;;;;0.40;0.30;;;16.30;99.90;;;;;;5091123;28;20711;-75
2021/07/26 04:27:24;;;;;;;0.40;0.20;;;16.20;99.90;;;;;;5091090;28;20405;-74
2021/07/26 04:29:49;;;;;;;0.40;0.30;;;16.20;99.90;;;;;;5090921;28;20385;-75
2021/07/26 04:32:15;;;;;;;0.40;0.30;;;16.20;99.90;;;;;;5091360;28;20854;-75
2021/07/26 04:34:41;;;;;;;0.40;0.28;;;16.20;99.90;;;;;;5091805;28;20862;-75
2021/07/26 04:37:09;;;;;;;0.40;0.30;;;16.30;99.90;;;;;;5090464;28;20781;-75
2021/07/26 04:39:34;;;;;;;0.40;0.20;;;16.30;99.90;;;;;;5091104;28;20393;-75
2021/07/26 04:42:00;;;;;;;0.40;0.20;;;16.30;99.90;;;;;;5090469;28;20382;-75
2021/07/26 04:44:26;;;;;;;0.40;0.20;;;16.60;99.90;;;;;;5091735;28;20894;-75
2021/07/26 04:46:51;;;;;;;0.40;0.20;;;16.40;99.90;;;;;;5091070;28;20389;-75
2021/07/26 04:49:17;;;;;;;0.40;0.20;;;16.30;99.90;;;;;;5091154;28;20429;-75
2021/07/26 04:51:43;;;;;;;0.40;0.30;;;16.30;99.90;;;;;;5073083;28;20394;-74
2021/07/26 04:54:08;;;;;;;0.40;0.20;;;16.60;99.90;;;;;;5091402;28;20781;-74
2021/07/26 04:56:34;;;;;;;0.40;0.20;;;16.40;99.90;;;;;;5091625;28;20716;-74
2021/07/26 04:59:00;;;;;;;0.40;0.30;;;16.40;99.90;;;;;;5090441;28;20390;-75
2021/07/26 05:01:25;;;;;;;0.40;0.20;;;16.50;99.90;;;;;;5091486;28;20861;-74
2021/07/26 05:03:51;;;;;;;0.40;0.27;;;16.50;99.90;;;;;;5090773;28;20378;-75
2021/07/26 05:06:18;;;;;;;0.40;0.20;;;16.40;99.90;;;;;;5072698;28;20400;-75
2021/07/26 05:08:47;;;;;;;0.40;0.20;;;16.60;99.90;;;;;;5091641;28;20758;-74
2021/07/26 05:11:13;;;;;;;0.40;0.20;;;16.80;99.90;;;;;;5091530;28;20469;-75
2021/07/26 05:13:38;;;;;;;0.40;0.30;;;16.80;99.90;;;;;;5091662;28;20465;-73
2021/07/26 05:16:04;;;;;;;0.40;0.20;;;16.80;99.90;;;;;;5072310;28;20717;-74
2021/07/26 05:18:30;;;;;;;0.40;0.20;;;16.80;99.90;;;;;;5091451;28;20800;-74
2021/07/26 05:20:55;;;;;;;0.40;0.20;;;16.60;99.90;;;;;;5090173;28;20403;-75
2021/07/26 05:23:21;;;;;;;0.40;0.20;;;17.00;99.90;;;;;;5106448;28;20415;-75
2021/07/26 05:25:47;;;;;;;0.40;0.30;;;17.00;99.90;;;;;;5091812;28;20374;-76
2021/07/26 05:28:13;;;;;;;0.40;0.20;;;17.00;99.90;;;;;;5099334;28;20416;-75
2021/07/26 05:30:39;;;;;;;0.40;0.20;;;17.00;99.90;;;;;;5096002;28;20384;-75
2021/07/26 05:33:05;;;;;;;0.40;0.20;;;17.00;99.90;;;;;;5095070;28;20744;-75
2021/07/26 05:35:31;;;;;;;0.40;0.25;;;17.00;99.90;;;;;;5107431;28;20378;-75
2021/07/26 05:37:57;;;;;;;0.40;0.30;;;16.90;99.90;;;;;;5108454;28;20384;-74
2021/07/26 05:40:23;;;;;;;0.40;0.20;;;17.00;99.90;;;;;;5103872;28;20377;-74
2021/07/26 05:42:48;;;;;;;0.40;0.20;;;17.00;99.90;;;;;;5101282;28;20865;-74
2021/07/26 05:45:14;;;;;;;0.40;0.20;;;17.00;99.90;;;;;;5110587;28;20844;-75
2021/07/26 05:47:40;;;;;;;0.40;0.20;;;17.00;99.90;;;;;;5097430;28;20400;-74
2021/07/26 05:50:06;;;;;;;0.40;0.30;;;17.00;99.90;;;;;;5107136;28;21025;-74
2021/07/26 05:52:32;;;;;;;0.40;0.20;;;17.00;99.90;;;;;;5086425;28;20859;-74
2021/07/26 05:54:58;;;;;;;0.40;0.20;;;17.30;99.90;;;;;;5099752;28;20405;-73
2021/07/26 05:57:26;;;;;;;0.40;0.20;;;17.20;99.90;;;;;;5110247;28;20467;-73
2021/07/26 05:59:56;;;;;;;0.40;0.20;;;17.10;99.90;;;;;;5098387;28;20387;-74
2021/07/26 06:02:21;;;;;;;0.40;0.20;;;16.90;99.90;;;;;;5105335;28;20374;-75
2021/07/26 06:04:47;;;;;;;0.40;0.20;;;17.00;99.90;;;;;;5106035;28;20784;-75
2021/07/26 06:07:13;;;;;;;0.40;0.20;;;17.10;99.90;;;;;;5097624;28;20431;-74
2021/07/26 06:09:38;;;;;;;0.40;0.20;;;17.20;99.90;;;;;;5110632;28;20453;-74
2021/07/26 06:12:04;;;;;;;0.40;0.30;;;17.20;99.90;;;;;;5093457;28;20416;-74
2021/07/26 06:14:30;;;;;;;0.40;0.20;;;17.20;99.90;;;;;;5096224;28;20399;-75
2021/07/26 06:16:57;;;;;;;0.40;0.20;;;17.30;99.90;;;;;;5077677;28;20386;-72
2021/07/26 06:19:22;;;;;;;0.40;0.20;;;17.40;99.90;;;;;;5092416;28;20716;-73
2021/07/26 06:21:54;;;;;;;0.40;0.20;;;17.40;99.90;;;;;;5092330;28;20423;-73
2021/07/26 06:24:21;;;;;;;0.40;0.20;;;17.50;99.90;;;;;;5092921;28;20412;-73
2021/07/26 06:26:47;;;;;;;0.40;0.20;;;17.50;99.90;;;;;;5099375;28;20797;-73
2021/07/26 06:29:13;;;;;;;0.40;0.20;;;17.50;99.90;;;;;;5094417;28;20454;-73
2021/07/26 06:31:40;;;;;;;0.40;0.20;;;17.70;99.90;;;;;;5106573;28;20389;-73
2021/07/26 06:34:06;;;;;;;0.40;0.30;;;17.80;99.90;;;;;;5094950;28;20394;-73
2021/07/26 06:36:34;;;;;;;0.40;0.20;;;18.00;99.90;;;;;;5108673;28;20394;-73
2021/07/26 06:39:00;;;;;;;0.40;0.20;;;18.00;99.90;;;;;;5101273;28;20737;-73
2021/07/26 06:41:26;;;;;;;0.40;0.27;;;18.20;99.90;;;;;;5101068;28;20386;-73
2021/07/26 06:43:53;;;;;;;0.40;0.20;;;18.30;99.90;;;;;;5093790;28;20394;-73
2021/07/26 06:46:22;;;;;;;0.40;0.20;;;18.40;99.90;;;;;;5093522;28;20388;-73
2021/07/26 06:48:48;;;;;;;0.40;0.20;;;18.60;99.90;;;;;;5096869;28;20953;-74
2021/07/26 06:51:14;;;;;;;0.40;0.20;;;18.50;99.90;;;;;;5108034;28;20373;-74
2021/07/26 06:53:40;;;;;;;0.40;0.25;;;18.80;99.90;;;;;;5078100;28;20378;-74
2021/07/26 06:56:08;;;;;;;0.40;0.20;;;18.90;99.90;;;;;;5107591;28;20392;-74
2021/07/26 06:58:34;;;;;;;0.40;0.20;;;18.90;99.90;;;;;;5100831;28;20388;-74
2021/07/26 07:01:11;;;;;;;0.40;0.20;;;19.10;99.90;;;;;;5099608;28;20418;-74
2021/07/26 07:03:41;;;;;;;0.40;0.30;;;19.10;99.90;;;;;;5110482;28;20955;-74
2021/07/26 07:06:12;;;;;;;0.40;0.20;;;19.30;99.90;;;;;;5110707;28;20381;-75
2021/07/26 07:08:38;;;;;;;0.40;0.20;;;19.30;99.90;;;;;;5093838;28;20885;-74
2021/07/26 07:11:06;;;;;;;0.40;0.20;;;19.60;99.90;;;;;;5111723;28;20368;-75
2021/07/26 07:13:34;;;;;;;0.40;0.20;;;19.80;99.90;;;;;;5112678;28;20415;-75
2021/07/26 07:16:00;;;;;;;0.40;0.20;;;20.00;99.90;;;;;;5102927;28;20374;-73
2021/07/26 07:18:25;;;;;;;0.40;0.20;;;20.20;99.90;;;;;;5092338;28;20378;-74
2021/07/26 07:20:51;;;;;;;0.40;0.30;;;20.40;99.90;;;;;;5091814;28;20373;-73
2021/07/26 07:23:17;;;;;;;0.40;0.20;;;20.60;99.90;;;;;;5091773;28;20842;-73
2021/07/26 07:25:42;;;;;;;0.40;0.20;;;20.70;99.90;;;;;;5092377;28;20375;-74
2021/07/26 07:28:08;;;;;;;0.40;0.20;;;20.80;99.90;;;;;;5091932;28;20406;-73
2021/07/26 07:30:34;;;;;;;0.40;0.20;;;21.10;99.90;;;;;;5092182;28;20423;-73
2021/07/26 07:33:00;;;;;;;0.40;0.20;;;21.30;99.90;;;;;;5091669;28;20379;-74
2021/07/26 07:35:26;;;;;;;0.40;0.20;;;21.10;99.90;;;;;;5092345;28;20374;-76
2021/07/26 07:37:52;;;;;;;0.40;0.20;;;21.20;99.90;;;;;;5073540;28;20398;-73
2021/07/26 07:40:18;;;;;;;0.40;0.20;;;21.40;99.90;;;;;;5092079;28;20458;-72
2021/07/26 07:42:44;;;;;;;0.40;0.20;;;21.30;99.90;;;;;;5092204;28;20838;-73
2021/07/26 07:45:10;;;;;;;0.40;0.20;;;21.30;99.90;;;;;;5091633;28;20381;-73
2021/07/26 07:47:37;;;;;;;0.40;0.30;;;21.30;99.90;;;;;;5091863;28;20811;-74
2021/07/26 07:50:04;;;;;;;0.40;0.30;;;21.60;99.90;;;;;;5090647;28;20382;-75
2021/07/26 07:52:30;;;;;;;0.40;0.20;;;21.60;99.90;;;;;;5092314;28;20370;-75
2021/07/26 07:54:56;;;;;;;0.40;0.20;;;21.60;99.90;;;;;;5091035;28;20453;-75
2021/07/26 07:57:24;;;;;;;0.40;0.20;;;21.70;99.90;;;;;;5092315;28;20382;-74
2021/07/26 07:59:50;;;;;;;0.40;0.30;;;21.60;99.90;;;;;;5091853;28;20458;-74
2021/07/26 08:02:17;;;;;;;0.40;0.20;;;21.80;99.90;;;;;;5091445;28;21016;-75
2021/07/26 08:04:43;;;;;;;0.40;0.20;;;21.70;99.90;;;;;;5091438;28;20374;-75
2021/07/26 08:07:09;;;;;;;0.40;0.20;;;21.80;99.90;;;;;;5091057;28;20767;-75
2021/07/26 08:09:34;;;;;;;0.40;0.30;;;22.00;99.90;;;;;;5091770;28;20486;-75
2021/07/26 08:12:00;;;;;;;0.40;0.20;;;22.10;99.90;;;;;;5091219;28;20378;-75
2021/07/26 08:14:26;;;;;;;0.40;0.20;;;22.10;99.90;;;;;;5091400;28;20377;-74
2021/07/26 08:16:51;;;;;;;0.40;0.27;;;22.00;99.90;;;;;;5091296;28;20382;-73
2021/07/26 08:19:18;;;;;;;0.40;0.30;;;22.00;99.90;;;;;;5091052;28;20385;-75
2021/07/26 08:21:44;;;;;;;0.40;0.20;;;22.10;99.90;;;;;;5107044;28;20447;-74
2021/07/26 08:24:10;;;;;;;0.40;0.20;;;22.10;99.90;;;;;;5090767;28;20370;-75
2021/07/26 08:26:35;;;;;;;0.40;0.20;;;22.20;99.90;;;;;;5090848;28;20392;-76
2021/07/26 08:29:01;;;;;;;0.40;0.20;;;22.30;99.90;;;;;;5090886;28;20444;-75
2021/07/26 08:31:26;;;;;;;0.40;0.20;;;22.20;99.90;;;;;;5091288;28;20873;-75
2021/07/26 08:33:52;;;;;;;0.40;0.20;;;22.30;99.90;;;;;;5091121;28;20377;-75
2021/07/26 08:36:18;;;;;;;0.40;0.20;;;22.50;99.90;;;;;;5090822;28;20821;-75
2021/07/26 08:38:43;;;;;;;0.40;0.20;;;22.30;99.90;;;;;;5091294;28;20702;-75
2021/07/26 08:41:09;;;;;;;0.40;0.30;;;22.30;99.90;;;;;;5090715;28;20763;-75
2021/07/26 08:43:35;;;;;;;0.40;0.40;;;22.40;99.90;;;;;;5091211;28;20431;-75
2021/07/26 08:46:02;;;;;;;0.40;0.20;;;22.50;99.90;;;;;;5090802;28;20471;-76
2021/07/26 08:48:30;;;;;;;0.40;0.20;;;22.50;99.90;;;;;;5091375;28;20444;-74
2021/07/26 08:50:58;;;;;;;0.40;0.30;;;22.60;99.90;;;;;;5090717;28;20381;-75
2021/07/26 08:53:25;;;;;;;0.40;0.20;;;22.50;99.90;;;;;;5091241;28;20378;-74
2021/07/26 08:55:50;;;;;;;0.40;0.20;;;22.50;99.90;;;;;;5091097;28;20965;-74
2021/07/26 08:58:18;;;;;;;0.40;0.20;;;22.50;99.90;;;;;;5106304;28;20488;-74
2021/07/26 09:00:44;;;;;;;0.40;0.20;;;22.40;99.90;;;;;;5092928;28;20374;-74
2021/07/26 09:03:10;;;;;;;0.40;0.20;;;22.60;99.90;;;;;;5094635;28;20393;-74
2021/07/26 09:05:35;;;;;;;0.40;0.30;;;22.70;99.90;;;;;;5095237;28;20396;-74
2021/07/26 09:08:05;;;;;;;0.40;0.20;;;22.60;99.90;;;;;;5094899;28;20751;-74
2021/07/26 09:10:35;;;;;;;0.40;0.20;;;22.20;99.90;;;;;;5095047;28;20380;-74
2021/07/26 09:13:02;;;;;;;0.40;0.20;;;22.70;99.90;;;;;;5094432;28;20420;-75
2021/07/26 09:16:11;;;;;;;0.40;0.20;;;22.70;99.90;;;;;;5094810;28;20729;-76
2021/07/26 09:18:37;;;;;;;0.40;0.20;;;22.70;99.90;;;;;;5066094;28;20787;-74
2021/07/26 09:21:03;;;;;;;0.40;0.20;;;22.90;99.90;;;;;;5094107;28;20405;-76
2021/07/26 09:23:29;;;;;;;0.40;0.20;;;22.80;99.90;;;;;;5094744;28;20369;-75
2021/07/26 09:25:55;;;;;;;0.40;0.40;;;22.60;99.90;;;;;;5095083;28;20377;-74
2021/07/26 09:31:31;;;;;;;0.40;0.20;;;23.50;99.90;;;;;;5094697;28;20745;-76
2021/07/26 09:34:18;;;;;;;0.40;0.20;;;23.20;99.90;;;;;;5094430;28;20959;-74
2021/07/26 09:36:44;;;;;;;0.40;0.20;;;23.10;99.90;;;;;;5094224;28;20376;-76
2021/07/26 09:39:27;;;;;;;0.40;0.20;;;23.10;99.90;;;;;;5094042;28;20386;-78
2021/07/26 09:41:54;;;;;;;0.40;0.20;;;23.20;99.90;;;;;;5094433;28;20385;-74
2021/07/26 09:44:28;;;;;;;0.40;0.20;;;23.20;99.80;;;;;;5093819;28;20370;-75
2021/07/26 09:47:14;;;;;;;0.40;0.20;;;23.30;98.70;;;;;;5076481;28;20386;-73
2021/07/26 09:49:40;;;;;;;0.40;0.20;;;23.20;99.00;;;;;;5094376;28;20784;-73
2021/07/26 09:52:10;;;;;;;0.40;0.30;;;23.20;99.90;;;;;;5093870;28;20370;-75
2021/07/26 09:54:43;;;;;;;0.40;0.20;;;23.30;99.10;;;;;;5094418;28;20419;-76
2021/07/26 09:57:20;;;;;;;0.40;0.20;;;23.50;99.20;;;;;;5093513;28;20396;-75
2021/07/26 09:59:47;;;;;;;0.40;0.20;;;23.40;99.60;;;;;;5094108;28;20385;-74
2021/07/26 10:02:18;;;;;;;0.40;0.20;;;23.40;98.80;;;;;;5093674;28;20374;-74
2021/07/26 10:04:48;;;;;;;0.40;0.20;;;23.60;99.70;;;;;;5094035;28;20382;-75
2021/07/26 10:08:03;;;;;;;0.40;0.20;;;23.60;99.50;;;;;;5093517;28;20367;-73
2021/07/26 10:10:31;;;;;;;0.40;0.20;;;23.70;98.10;;;;;;5064064;28;20397;-75
2021/07/26 10:12:58;;;;;;;0.40;0.30;;;23.40;98.40;;;;;;5093173;28;20448;-74
2021/07/26 10:15:26;;;;;;;0.40;0.20;;;23.50;99.90;;;;;;5093175;28;20739;-74
2021/07/26 10:17:51;;;;;;;0.40;0.20;;;23.60;99.90;;;;;;5093664;28;20378;-72
2021/07/26 10:20:24;;;;;;;0.40;0.20;;;23.60;99.20;;;;;;5093301;28;20714;-74
2021/07/26 10:22:57;;;;;;;0.40;0.20;;;23.70;98.80;;;;;;5093340;28;20499;-74
2021/07/26 10:25:49;;;;;;;0.40;0.20;;;23.60;99.70;;;;;;5092392;28;20375;-75
2021/07/26 10:28:30;;;;;;;0.40;0.20;;;24.60;99.90;;;;;;5093238;28;20878;-75
2021/07/26 10:30:57;;;;;;;0.40;0.20;;;23.60;99.90;;;;;;5093541;28;20898;-74
2021/07/26 10:33:23;;;;;;;0.40;0.27;;;23.20;99.90;;;;;;5092727;28;20918;-74
2021/07/26 10:35:53;;;;;;;0.40;0.20;;;23.50;99.90;;;;;;5093396;28;20914;-74
2021/07/26 10:38:44;;;;;;;0.40;0.20;;;23.10;99.90;;;;;;5074811;28;20386;-75
2021/07/26 10:41:47;;;;;;;0.40;0.20;;;23.20;99.90;;;;;;5092609;28;20390;-80
2021/07/26 10:44:15;;;;;;;0.40;0.20;;;25.00;99.90;;;;;;5092890;28;20461;-73
2021/07/26 10:46:53;;;;;;;0.40;0.20;;;23.60;99.90;;;;;;5093210;28;20374;-73
2021/07/26 10:49:50;;;;;;;0.40;0.20;;;23.70;99.90;;;;;;5092501;28;20490;-73
2021/07/26 10:52:21;;;;;;;0.40;0.20;;;23.90;99.90;;;;;;5057276;28;20865;-73
2021/07/26 10:54:48;;;;;;;0.40;0.20;;;24.10;99.90;;;;;;5092964;28;20405;-77
2021/07/26 10:57:14;;;;;;;0.40;0.20;;;24.30;99.90;;;;;;5092151;28;20479;-73
2021/07/26 11:00:08;;;;;;;0.40;0.20;;;24.40;99.90;;;;;;5074868;28;20400;-73
2021/07/26 11:02:37;;;;;;;0.40;0.20;;;24.30;99.90;;;;;;5092928;28;20868;-74
2021/07/26 11:05:23;;;;;;;0.40;0.30;;;24.20;99.90;;;;;;5074549;28;20405;-74
2021/07/26 11:08:12;;;;;;;0.40;0.30;;;24.40;99.90;;;;;;5078706;28;20439;-74
2021/07/26 11:10:44;;;;;;;0.40;0.20;;;24.20;99.90;;;;;;5092641;28;20434;-74
2021/07/26 11:13:10;;;;;;;0.40;0.30;;;23.90;99.90;;;;;;5092256;28;20420;-74
2021/07/26 11:15:55;;;;;;;0.40;0.20;;;23.80;99.90;;;;;;5092456;28;20378;-74
2021/07/26 11:18:41;;;;;;;0.40;0.20;;;23.80;99.90;;;;;;5092086;28;20390;-73
2021/07/26 11:21:17;;;;;;;0.40;0.30;;;23.70;99.90;;;;;;5092025;28;20378;-73
2021/07/26 11:23:46;;;;;;;0.40;0.30;;;23.60;99.90;;;;;;5092687;28;20488;-74
2021/07/26 11:26:15;;;;;;;0.40;0.20;;;23.50;99.90;;;;;;5091744;28;20417;-74
2021/07/26 11:28:40;;;;;;;0.40;0.20;;;23.50;99.90;;;;;;5092789;28;20418;-75
2021/07/26 11:31:06;;;;;;;0.40;0.20;;;23.50;99.90;;;;;;5091907;28;20385;-74
2021/07/26 11:33:33;;;;;;;0.40;0.20;;;23.60;99.90;;;;;;5091379;28;20393;-80
2021/07/26 11:35:59;;;;;;;0.40;0.20;;;23.50;99.90;;;;;;5091742;28;20429;-75
2021/07/26 11:38:26;;;;;;;0.40;0.20;;;23.40;99.90;;;;;;5091214;28;20386;-75
2021/07/26 11:40:52;;;;;;;0.40;0.20;;;23.50;99.90;;;;;;5091780;28;20374;-75
2021/07/26 11:43:33;;;;;;;0.40;0.20;;;23.50;99.90;;;;;;5091540;28;20384;-75
2021/07/26 11:46:01;;;;;;;0.40;0.20;;;23.70;99.90;;;;;;5072965;28;20842;-73
2021/07/26 11:48:28;;;;;;;0.40;0.20;;;23.80;99.90;;;;;;5092945;28;20492;-76
2021/07/26 11:50:54;;;;;;;0.40;0.30;;;24.00;99.90;;;;;;5090154;28;20427;-77
2021/07/26 11:53:30;;;;;;;0.40;0.20;;;24.10;99.90;;;;;;5091234;28;20730;-77
2021/07/26 11:55:57;;;;;;;0.40;0.30;;;24.40;99.50;;;;;;5073366;28;20381;-74
2021/07/26 11:58:27;;;;;;;0.40;0.30;;;24.80;97.30;;;;;;5091421;28;20397;-74
2021/07/26 12:00:54;;;;;;;0.40;0.30;;;24.70;97.20;;;;;;5089990;28;20524;-75
2021/07/26 12:03:22;;;;;;;0.40;0.20;;;24.60;98.30;;;;;;5091344;28;20397;-75
2021/07/26 12:05:48;;;;;;;0.40;0.20;;;24.50;98.20;;;;;;5088961;28;20386;-73
2021/07/26 12:08:16;;;;;;;1.70;0.70;;;24.50;97.20;;;;;;5091315;28;20441;-74
2021/07/26 12:10:42;;;;;;;0.40;0.30;;;24.90;97.00;;;;;;5091744;28;20385;-74
2021/07/26 12:13:09;;;;;;;0.40;0.20;;;25.20;97.50;;;;;;5091290;28;20378;-75
2021/07/26 12:15:35;;;;;;;0.40;0.20;;;24.90;97.30;;;;;;5091736;28;20369;-73
2021/07/26 12:18:08;;;;;;;0.40;0.40;;;24.60;97.70;;;;;;5091847;28;20386;-74
2021/07/26 12:20:36;;;;;;;0.40;0.30;;;24.70;97.40;;;;;;5091639;28;20382;-73
2021/07/26 12:23:16;;;;;;;0.40;0.30;;;24.60;96.60;;;;;;5091837;28;20382;-73
2021/07/26 12:25:47;;;;;;;0.40;0.20;;;24.60;97.40;;;;;;5091131;28;20444;-73
2021/07/26 12:28:17;;;;;;;0.40;0.20;;;25.10;96.90;;;;;;5090336;28;20418;-75
2021/07/26 12:30:44;;;;;;;0.40;0.20;;;25.30;96.40;;;;;;5091009;28;20712;-75
2021/07/26 12:33:12;;;;;;;0.40;0.20;;;25.60;95.90;;;;;;5072872;28;20397;-74
2021/07/26 12:35:39;;;;;;;0.40;0.20;;;26.00;95.90;;;;;;5091237;28;20378;-75
2021/07/26 12:38:10;;;;;;;0.40;0.20;;;26.30;96.70;;;;;;5092307;28;20881;-73
2021/07/26 12:40:39;;;;;;;0.40;0.20;;;26.10;92.80;;;;;;5095845;28;20502;-73
2021/07/26 12:43:16;;;;;;;0.40;0.30;;;25.80;93.70;;;;;;5091491;28;20404;-74
2021/07/26 12:46:05;;;;;;;0.40;0.20;;;25.50;93.90;;;;;;5091487;28;20376;-75
2021/07/26 12:48:33;;;;;;;0.40;0.20;;;25.50;94.00;;;;;;5068288;28;20471;-73
2021/07/26 12:51:01;;;;;;;0.40;0.20;;;26.30;93.80;;;;;;5072648;28;20383;-74
2021/07/26 12:53:27;;;;;;;0.40;0.20;;;26.20;93.90;;;;;;5090715;28;20456;-75
2021/07/26 12:55:54;;;;;;;0.40;0.30;;;26.40;94.30;;;;;;5091170;28;20373;-73
2021/07/26 12:58:22;;;;;;;0.40;0.20;;;26.80;93.30;;;;;;5090401;28;20699;-74